createdAt,value
2022-08-25T00:00:03.892Z,0.77
2022-08-25T00:02:38.643Z,1.00
2022-08-25T00:05:13.594Z,1.17
2022-08-25T00:07:50.367Z,1.00
2022-08-25T00:13:02.321Z,1.00
2022-08-25T00:15:38.730Z,1.00
2022-08-25T00:18:19.726Z,0.90
2022-08-25T00:20:55.092Z,0.90
2022-08-25T00:23:29.830Z,1.27
2022-08-25T00:28:41.888Z,0.82
2022-08-25T00:31:18.447Z,0.80
2022-08-25T00:33:55.327Z,0.80
2022-08-25T00:36:30.110Z,0.90
2022-08-25T00:39:04.867Z,0.80
2022-08-25T00:41:40.162Z,0.90
2022-08-25T00:44:18.632Z,0.93
2022-08-25T00:46:54.194Z,0.90
2022-08-25T00:49:30.447Z,1.25
2022-08-25T00:52:06.919Z,1.05
2022-08-25T00:54:43.692Z,0.90
2022-08-25T00:57:19.585Z,1.10
2022-08-25T01:00:13.547Z,1.00
2022-08-25T01:02:48.334Z,1.20
2022-08-25T01:05:23.807Z,1.10
2022-08-25T01:07:59.551Z,0.90
2022-08-25T01:10:35.018Z,1.73
2022-08-25T01:13:16.025Z,0.90
2022-08-25T01:15:56.674Z,1.15
2022-08-25T01:18:31.514Z,1.00
2022-08-25T01:21:09.025Z,1.10
2022-08-25T01:23:44.230Z,1.35
2022-08-25T01:26:21.106Z,0.80
2022-08-25T01:29:19.866Z,1.00
2022-08-25T01:31:56.155Z,1.00
2022-08-25T01:34:32.021Z,1.20
2022-08-25T01:37:09.614Z,0.82
2022-08-25T01:39:48.298Z,1.10
2022-08-25T01:42:27.448Z,1.00
2022-08-25T01:45:02.187Z,1.27
2022-08-25T01:50:11.707Z,0.82
2022-08-25T01:52:54.630Z,1.15
2022-08-25T01:55:29.794Z,1.20
2022-08-25T01:58:04.819Z,1.02
2022-08-25T02:00:40.096Z,1.10
2022-08-25T02:05:54.179Z,1.00
2022-08-25T02:08:31.588Z,1.15
2022-08-25T02:11:06.346Z,1.27
2022-08-25T02:13:41.234Z,1.10
2022-08-25T02:16:20.828Z,1.10
2022-08-25T02:18:56.108Z,1.30
2022-08-25T02:21:31.268Z,1.00
2022-08-25T02:24:08.954Z,1.13
2022-08-25T02:26:44.951Z,1.23
2022-08-25T02:29:19.911Z,0.93
2022-08-25T02:31:54.697Z,1.00
2022-08-25T02:34:29.497Z,1.02
2022-08-25T02:37:04.390Z,1.30
2022-08-25T02:39:41.691Z,1.30
2022-08-25T02:42:16.406Z,1.50
2022-08-25T02:47:27.226Z,0.98
2022-08-25T02:50:02.022Z,0.98
2022-08-25T02:55:17.087Z,1.15
2022-08-25T02:57:51.829Z,1.10
2022-08-25T03:00:26.620Z,1.38
2022-08-25T03:03:01.347Z,1.40
2022-08-25T03:08:11.206Z,1.20
2022-08-25T03:10:48.544Z,1.27
2022-08-25T03:13:26.725Z,1.10
2022-08-25T03:16:01.586Z,1.20
2022-08-25T03:18:38.076Z,1.05
2022-08-25T03:21:13.596Z,1.10
2022-08-25T03:23:50.626Z,1.23
2022-08-25T03:29:14.645Z,1.10
2022-08-25T03:31:49.486Z,1.00
2022-08-25T03:34:25.175Z,1.00
2022-08-25T03:37:00.331Z,1.40
2022-08-25T03:39:35.046Z,1.45
2022-08-25T03:44:46.741Z,1.00
2022-08-25T03:47:21.585Z,1.00
2022-08-25T03:49:56.306Z,1.40
2022-08-25T03:55:06.068Z,1.10
2022-08-25T03:57:41.114Z,1.10
2022-08-25T04:00:18.818Z,1.33
2022-08-25T04:02:53.536Z,1.20
2022-08-25T04:08:02.686Z,1.10
2022-08-25T04:10:37.457Z,1.40
2022-08-25T04:13:13.558Z,1.50
2022-08-25T04:15:51.097Z,1.70
2022-08-25T04:18:25.795Z,1.33
2022-08-25T04:23:34.885Z,0.90
2022-08-25T04:28:44.888Z,1.27
2022-08-25T04:31:23.587Z,1.33
2022-08-25T04:33:58.624Z,1.33
2022-08-25T04:36:33.315Z,1.25
2022-08-25T04:41:42.824Z,1.20
2022-08-25T04:44:17.941Z,1.40
2022-08-25T04:46:55.374Z,1.48
2022-08-25T04:49:30.585Z,1.42
2022-08-25T04:52:05.291Z,1.60
2022-08-25T04:54:48.250Z,1.40
2022-08-25T04:57:23.007Z,1.33
2022-08-25T04:59:58.504Z,1.67
2022-08-25T05:02:36.409Z,1.50
2022-08-25T05:05:11.197Z,1.50
2022-08-25T05:07:45.953Z,1.30
2022-08-25T05:10:20.705Z,1.50
2022-08-25T05:12:56.926Z,1.48
2022-08-25T05:15:44.400Z,1.40
2022-08-25T05:18:22.112Z,1.67
2022-08-25T05:20:57.338Z,1.65
2022-08-25T05:23:32.051Z,1.17
2022-08-25T05:28:42.017Z,1.20
2022-08-25T05:31:17.646Z,1.50
2022-08-25T05:33:55.483Z,1.30
2022-08-25T05:36:30.828Z,1.70
2022-08-25T05:39:05.889Z,1.30
2022-08-25T05:41:40.873Z,1.70
2022-08-25T05:44:20.802Z,1.30
2022-08-25T05:46:55.981Z,1.23
2022-08-25T05:52:07.869Z,1.60
2022-08-25T05:54:42.907Z,1.30
2022-08-25T05:57:18.049Z,1.20
2022-08-25T05:59:52.896Z,1.60
2022-08-25T06:02:39.898Z,1.20
2022-08-25T06:05:16.481Z,1.48
2022-08-25T06:07:54.845Z,1.90
2022-08-25T06:10:29.943Z,1.50
2022-08-25T06:13:04.726Z,1.55
2022-08-25T06:15:41.307Z,1.08
2022-08-25T06:20:50.505Z,1.95
2022-08-25T06:23:27.825Z,1.17
2022-08-25T06:26:02.838Z,1.80
2022-08-25T06:28:37.836Z,1.42
2022-08-25T06:31:12.770Z,1.00
2022-08-25T06:33:47.568Z,1.20
2022-08-25T06:36:22.445Z,1.58
2022-08-25T06:38:59.773Z,1.50
2022-08-25T06:41:37.100Z,1.30
2022-08-25T06:44:11.963Z,1.38
2022-08-25T06:46:46.761Z,1.10
2022-08-25T06:49:21.674Z,1.20
2022-08-25T06:51:57.148Z,1.77
2022-08-25T06:54:34.543Z,1.50
2022-08-25T06:57:09.944Z,1.55
2022-08-25T06:59:44.674Z,1.80
2022-08-25T07:02:21.943Z,1.65
2022-08-25T07:04:57.498Z,1.65
2022-08-25T07:07:42.784Z,2.17
2022-08-25T07:10:21.573Z,1.50
2022-08-25T07:12:56.578Z,1.50
2022-08-25T07:15:31.370Z,1.75
2022-08-25T07:18:06.259Z,1.70
2022-08-25T07:20:41.818Z,1.50
2022-08-25T07:23:16.550Z,1.55
2022-08-25T07:25:54.273Z,1.60
2022-08-25T07:28:28.970Z,1.60
2022-08-25T07:31:04.015Z,1.45
2022-08-25T07:33:59.786Z,2.38
2022-08-25T07:36:32.062Z,2.03
2022-08-25T07:39:07.488Z,1.92
2022-08-25T07:41:45.103Z,2.20
2022-08-25T07:44:20.078Z,2.35
2022-08-25T07:49:35.938Z,1.90
2022-08-25T07:52:15.163Z,1.70
2022-08-25T07:54:50.058Z,1.40
2022-08-25T07:57:28.527Z,1.67
2022-08-25T08:00:07.109Z,1.70
2022-08-25T08:02:44.409Z,1.50
2022-08-25T08:05:19.158Z,1.40
2022-08-25T08:07:53.883Z,2.20
2022-08-25T08:13:26.943Z,1.33
2022-08-25T08:16:01.709Z,2.13
2022-08-25T08:18:36.451Z,1.90
2022-08-25T08:23:46.142Z,1.20
2022-08-25T08:26:22.520Z,1.60
2022-08-25T08:29:14.930Z,1.30
2022-08-25T08:31:49.814Z,1.50
2022-08-25T08:34:24.867Z,1.42
2022-08-25T08:37:00.539Z,1.55
2022-08-25T08:39:35.355Z,1.50
2022-08-25T08:42:22.409Z,1.25
2022-08-25T08:45:09.855Z,1.27
2022-08-25T08:47:53.356Z,1.00
2022-08-25T08:50:33.253Z,1.00
2022-08-25T08:53:10.103Z,1.60
2022-08-25T08:55:51.870Z,1.75
2022-08-25T08:58:31.263Z,1.15
2022-08-25T09:01:09.191Z,1.52
2022-08-25T09:03:45.449Z,1.45
2022-08-25T09:06:32.798Z,1.45
2022-08-25T09:09:08.893Z,1.48
2022-08-25T09:11:53.732Z,1.10
2022-08-25T09:14:34.550Z,1.60
2022-08-25T09:17:16.702Z,1.30
2022-08-25T09:20:18.823Z,1.80
2022-08-25T09:23:01.345Z,1.30
2022-08-25T09:25:53.165Z,1.15
2022-08-25T09:28:31.559Z,1.52
2022-08-25T09:31:07.884Z,1.67
2022-08-25T09:33:45.569Z,1.60
2022-08-25T09:36:21.390Z,1.05
2022-08-25T09:41:44.310Z,1.20
2022-08-25T09:44:26.170Z,1.33
2022-08-25T09:47:03.198Z,1.52
2022-08-25T09:49:42.381Z,1.73
2022-08-25T09:52:28.479Z,1.80
2022-08-25T09:55:05.226Z,1.35
2022-08-25T09:57:47.045Z,1.70
2022-08-25T10:00:24.571Z,1.88
2022-08-25T10:03:08.005Z,2.05
2022-08-25T10:06:00.419Z,1.85
2022-08-25T10:08:36.705Z,2.35
2022-08-25T10:11:13.351Z,1.75
2022-08-25T10:13:51.923Z,2.00
2022-08-25T10:16:33.617Z,1.67
2022-08-25T10:19:11.407Z,1.70
2022-08-25T10:22:03.248Z,1.77
2022-08-25T10:24:38.255Z,1.55
2022-08-25T10:27:21.865Z,1.60
2022-08-25T10:30:09.437Z,1.40
2022-08-25T10:32:54.638Z,1.48
2022-08-25T10:35:34.306Z,1.60
2022-08-25T10:38:21.741Z,1.80
2022-08-25T10:41:00.571Z,2.03
2022-08-25T10:43:36.982Z,1.80
2022-08-25T10:46:16.441Z,1.60
2022-08-25T10:49:01.186Z,1.73
2022-08-25T10:51:56.050Z,2.13
2022-08-25T10:54:38.649Z,2.05
2022-08-25T10:57:17.112Z,2.03
2022-08-25T11:00:00.725Z,2.33
2022-08-25T11:03:00.587Z,2.20
2022-08-25T11:05:38.243Z,2.28
2022-08-25T11:08:15.405Z,1.88
2022-08-25T11:10:55.709Z,2.20
2022-08-25T11:13:34.834Z,2.17
2022-08-25T11:16:17.445Z,2.65
2022-08-25T11:18:56.238Z,1.83
2022-08-25T11:21:35.970Z,2.50
2022-08-25T11:24:16.995Z,2.03
2022-08-25T11:26:57.666Z,2.30
2022-08-25T11:29:36.940Z,1.98
2022-08-25T11:32:14.663Z,2.08
2022-08-25T11:34:49.438Z,2.30
2022-08-25T11:37:26.844Z,2.28
2022-08-25T11:40:15.846Z,2.15
2022-08-25T11:43:04.044Z,2.20
2022-08-25T11:45:54.526Z,2.00
2022-08-25T11:48:38.515Z,2.05
2022-08-25T11:51:14.700Z,2.00
2022-08-25T11:53:49.400Z,1.80
2022-08-25T11:56:35.178Z,2.22
2022-08-25T11:59:12.592Z,2.05
2022-08-25T12:02:11.070Z,2.15
2022-08-25T12:04:46.982Z,1.70
2022-08-25T12:07:23.760Z,1.80
2022-08-25T12:10:16.540Z,1.70
2022-08-25T12:13:02.553Z,2.00
2022-08-25T12:15:54.337Z,1.95
2022-08-25T12:18:46.365Z,2.30
2022-08-25T12:21:39.081Z,2.20
2022-08-25T12:24:17.673Z,1.90
2022-08-25T12:26:55.478Z,2.13
2022-08-25T12:29:35.789Z,2.10
2022-08-25T12:32:28.166Z,1.88
2022-08-25T12:35:16.545Z,1.80
2022-08-25T12:38:03.059Z,2.05
2022-08-25T12:40:40.181Z,1.70
2022-08-25T12:43:19.724Z,1.77
2022-08-25T12:45:54.969Z,1.70
2022-08-25T12:48:57.494Z,1.88
2022-08-25T12:51:51.750Z,1.48
2022-08-25T12:54:41.328Z,1.75
2022-08-25T12:57:36.579Z,1.73
2022-08-25T13:00:18.699Z,1.70
2022-08-25T13:03:06.131Z,1.85
2022-08-25T13:05:48.232Z,2.10
2022-08-25T13:08:49.714Z,1.85
2022-08-25T13:11:28.125Z,1.58
2022-08-25T13:14:08.216Z,1.73
2022-08-25T13:16:55.215Z,1.83
2022-08-25T13:19:34.789Z,1.50
2022-08-25T13:22:16.568Z,1.80
2022-08-25T13:24:54.323Z,1.50
2022-08-25T13:27:30.614Z,1.52
2022-08-25T13:30:06.292Z,1.40
2022-08-25T13:32:43.277Z,1.45
2022-08-25T13:35:19.839Z,1.40
2022-08-25T13:37:55.166Z,1.40
2022-08-25T13:40:36.718Z,1.70
2022-08-25T13:43:13.757Z,1.42
2022-08-25T13:45:50.953Z,1.30
2022-08-25T13:48:35.818Z,1.35
2022-08-25T13:51:12.162Z,1.38
2022-08-25T13:53:51.217Z,1.70
2022-08-25T13:56:35.497Z,1.10
2022-08-25T13:59:23.165Z,1.25
2022-08-25T14:04:36.429Z,1.35
2022-08-25T14:07:15.259Z,1.17
2022-08-25T14:09:55.890Z,1.20
2022-08-25T14:12:44.937Z,1.27
2022-08-25T14:15:33.485Z,1.42
2022-08-25T14:18:09.539Z,1.13
2022-08-25T14:20:49.848Z,1.00
2022-08-25T14:23:27.724Z,1.30
2022-08-25T14:26:02.495Z,1.20
2022-08-25T14:28:41.125Z,1.08
2022-08-25T14:31:17.557Z,1.20
2022-08-25T14:33:55.345Z,1.40
2022-08-25T14:36:31.685Z,1.13
2022-08-25T14:39:08.658Z,1.02
2022-08-25T14:41:47.442Z,1.27
2022-08-25T14:44:30.447Z,1.30
2022-08-25T14:47:07.125Z,1.35
2022-08-25T14:49:46.197Z,1.30
2022-08-25T14:52:24.529Z,1.33
2022-08-25T14:54:59.650Z,1.13
2022-08-25T14:57:35.823Z,1.10
2022-08-25T15:00:14.071Z,0.93
2022-08-25T15:02:52.881Z,1.30
2022-08-25T15:05:29.320Z,1.20
2022-08-25T15:08:17.137Z,1.00
2022-08-25T15:10:52.336Z,1.17
2022-08-25T15:13:28.316Z,1.08
2022-08-25T15:16:06.090Z,0.88
2022-08-25T15:18:40.915Z,0.90
2022-08-25T15:21:16.882Z,1.58
2022-08-25T15:23:56.219Z,1.00
2022-08-25T15:26:31.350Z,1.40
2022-08-25T15:29:07.008Z,1.30
2022-08-25T15:31:46.612Z,1.15
2022-08-25T15:34:21.599Z,1.30
2022-08-25T15:36:56.606Z,1.33
2022-08-25T15:39:31.350Z,1.23
2022-08-25T15:42:06.098Z,5.22
2022-08-25T15:44:40.950Z,2.30
2022-08-25T15:47:19.072Z,1.80
2022-08-25T15:49:54.582Z,2.05
2022-08-25T15:52:44.472Z,1.67
2022-08-25T15:55:21.601Z,1.20
2022-08-25T15:57:56.393Z,1.15
2022-08-25T16:00:31.771Z,1.10
2022-08-25T16:03:09.701Z,1.30
2022-08-25T16:05:48.681Z,0.90
2022-08-25T16:08:23.494Z,0.85
2022-08-25T16:10:59.844Z,0.80
2022-08-25T16:13:35.990Z,1.00
2022-08-25T16:16:10.771Z,1.10
2022-08-25T16:18:48.460Z,0.90
2022-08-25T16:21:25.759Z,0.80
2022-08-25T16:24:07.478Z,1.08
2022-08-25T16:26:48.132Z,0.63
2022-08-25T16:29:23.384Z,0.90
2022-08-25T16:31:58.831Z,0.80
2022-08-25T16:34:39.951Z,0.93
2022-08-25T16:37:15.040Z,0.70
2022-08-25T16:39:49.995Z,1.10
2022-08-25T16:42:26.117Z,0.80
2022-08-25T16:45:01.155Z,0.70
2022-08-25T16:47:38.392Z,0.65
2022-08-25T16:50:15.883Z,0.77
2022-08-25T16:53:02.947Z,0.90
2022-08-25T16:55:42.612Z,0.70
2022-08-25T16:58:17.300Z,0.80
2022-08-25T17:00:52.602Z,0.82
2022-08-25T17:03:33.637Z,0.85
2022-08-25T17:06:11.837Z,1.10
2022-08-25T17:08:46.987Z,0.70
2022-08-25T17:11:23.967Z,0.77
2022-08-25T17:14:00.128Z,0.73
2022-08-25T17:16:35.971Z,0.63
2022-08-25T17:19:12.950Z,0.70
2022-08-25T17:21:50.260Z,0.60
2022-08-25T17:24:29.327Z,0.70
2022-08-25T17:27:06.715Z,0.60
2022-08-25T17:29:43.653Z,0.70
2022-08-25T17:32:18.537Z,0.60
2022-08-25T17:34:53.269Z,0.45
2022-08-25T17:37:30.603Z,0.60
2022-08-25T17:40:05.651Z,0.73
2022-08-25T17:42:40.952Z,1.40
2022-08-25T17:45:15.774Z,2.00
2022-08-25T17:47:50.487Z,1.60
2022-08-25T17:50:25.243Z,1.70
2022-08-25T17:53:03.317Z,1.80
2022-08-25T17:55:38.298Z,1.52
2022-08-25T17:58:13.938Z,1.60
2022-08-25T18:00:49.633Z,1.40
2022-08-25T18:03:25.684Z,1.73
2022-08-25T18:06:00.453Z,2.13
2022-08-25T18:08:38.668Z,1.58
2022-08-25T18:11:14.946Z,1.67
2022-08-25T18:13:52.674Z,1.45
2022-08-25T18:16:28.211Z,1.95
2022-08-25T18:19:03.153Z,2.00
2022-08-25T18:21:41.801Z,2.08
2022-08-25T18:24:20.808Z,1.70
2022-08-25T18:26:59.139Z,2.00
2022-08-25T18:29:34.312Z,1.95
2022-08-25T18:32:09.702Z,2.40
2022-08-25T18:34:47.148Z,2.00
2022-08-25T18:37:34.349Z,1.92
2022-08-25T18:40:25.211Z,1.70
2022-08-25T18:43:00.878Z,1.80
2022-08-25T18:45:36.750Z,2.13
2022-08-25T18:48:11.750Z,2.08
2022-08-25T18:50:47.039Z,2.40
2022-08-25T18:53:36.782Z,2.17
2022-08-25T18:56:25.854Z,1.75
2022-08-25T18:59:00.750Z,2.30
2022-08-25T19:01:35.664Z,2.50
2022-08-25T19:04:10.462Z,2.78
2022-08-25T19:06:45.179Z,1.85
2022-08-25T19:09:20.016Z,2.35
2022-08-25T19:11:57.317Z,2.28
2022-08-25T19:14:32.028Z,2.35
2022-08-25T19:19:41.149Z,2.60
2022-08-25T19:25:11.125Z,2.15
2022-08-25T19:27:48.830Z,2.35
2022-08-25T19:30:25.015Z,1.80
2022-08-25T19:33:00.503Z,1.90
2022-08-25T19:35:36.961Z,2.00
2022-08-25T19:38:33.188Z,1.70
2022-08-25T19:41:10.608Z,1.83
2022-08-25T19:43:56.262Z,1.70
2022-08-25T19:46:35.307Z,1.90
2022-08-25T19:49:12.111Z,2.17
2022-08-25T19:51:51.139Z,1.95
2022-08-25T19:54:27.202Z,2.10
2022-08-25T19:57:02.827Z,2.10
2022-08-25T19:59:43.122Z,2.20
2022-08-25T20:02:19.889Z,1.92
2022-08-25T20:04:55.590Z,2.00
2022-08-25T20:07:32.588Z,1.98
2022-08-25T20:10:08.434Z,1.80
2022-08-25T20:12:48.822Z,2.00
2022-08-25T20:18:02.736Z,1.90
2022-08-25T20:20:37.654Z,2.00
2022-08-25T20:23:26.919Z,1.52
2022-08-25T20:26:02.642Z,2.00
2022-08-25T20:31:13.257Z,1.55
2022-08-25T20:33:50.842Z,1.42
2022-08-25T20:36:27.037Z,1.52
2022-08-25T20:39:01.779Z,1.85
2022-08-25T20:44:10.877Z,1.70
2022-08-25T20:49:25.333Z,1.23
2022-08-25T20:52:01.011Z,1.65
2022-08-25T20:54:35.826Z,1.90
2022-08-25T20:57:10.779Z,1.75
2022-08-25T20:59:45.539Z,1.63
2022-08-25T21:02:20.414Z,1.98
2022-08-25T21:04:57.950Z,1.85
2022-08-25T21:07:33.157Z,2.25
2022-08-25T21:10:14.209Z,2.20
2022-08-25T21:12:53.420Z,1.85
2022-08-25T21:15:28.359Z,2.30
2022-08-25T21:18:04.281Z,1.98
2022-08-25T21:20:41.687Z,1.90
2022-08-25T21:23:16.503Z,2.00
2022-08-25T21:25:51.834Z,2.03
2022-08-25T21:28:26.605Z,1.90
2022-08-25T21:31:01.353Z,1.80
2022-08-25T21:33:36.367Z,2.00
2022-08-25T21:36:15.096Z,1.88
2022-08-25T21:38:50.050Z,1.90
2022-08-25T21:41:26.078Z,1.60
2022-08-25T21:44:01.576Z,1.83
2022-08-25T21:46:37.729Z,1.90
2022-08-25T21:49:12.460Z,1.83
2022-08-25T21:52:00.754Z,1.90
2022-08-25T21:54:36.059Z,1.65
2022-08-25T21:59:45.311Z,1.85
2022-08-25T22:02:22.614Z,1.50
2022-08-25T22:04:57.970Z,1.52
2022-08-25T22:07:41.626Z,1.70
2022-08-25T22:10:17.638Z,1.55
2022-08-25T22:12:53.146Z,2.08
2022-08-25T22:15:28.011Z,2.25
2022-08-25T22:18:02.735Z,2.05
2022-08-25T22:20:39.256Z,2.30
2022-08-25T22:23:20.126Z,2.33
2022-08-25T22:25:55.450Z,1.83
2022-08-25T22:28:30.253Z,2.03
2022-08-25T22:33:40.391Z,1.80
2022-08-25T22:36:19.569Z,1.45
2022-08-25T22:38:57.706Z,1.70
2022-08-25T22:41:33.090Z,1.88
2022-08-25T22:44:08.469Z,1.65
2022-08-25T22:46:43.192Z,1.52
2022-08-25T22:49:20.022Z,2.00
2022-08-25T22:51:55.616Z,1.58
2022-08-25T22:54:33.512Z,1.90
2022-08-25T22:57:08.596Z,2.08
2022-08-25T22:59:43.363Z,1.55
2022-08-25T23:02:18.077Z,1.60
2022-08-25T23:04:55.794Z,2.33
2022-08-25T23:07:31.201Z,2.00
2022-08-25T23:10:09.357Z,1.83
2022-08-25T23:12:44.230Z,1.65
2022-08-25T23:15:18.969Z,2.15
2022-08-25T23:20:44.975Z,2.15
2022-08-25T23:23:20.530Z,2.03
2022-08-25T23:25:59.421Z,1.98
2022-08-25T23:28:34.493Z,1.88
2022-08-25T23:33:43.912Z,1.63
2022-08-25T23:36:22.501Z,1.80
2022-08-25T23:38:58.299Z,1.92
2022-08-25T23:41:36.015Z,1.85
2022-08-25T23:44:17.553Z,2.10
2022-08-25T23:46:53.246Z,1.65
2022-08-25T23:49:27.979Z,1.83
2022-08-25T23:54:37.078Z,1.90
2022-08-25T23:59:48.926Z,1.52
